Time;durP1;ratioP1;P1;durP2;ratioP2;P2;SDS_P1;SDS_P2;PMS_P1;PMS_P2;Temp;Humidity;BMP_temperature;BMP_pressure;BME280_temperature;BME280_humidity;BME280_pressure;Samples;Min_cycle;Max_cycle;Signal;HPM_P1;HPM_P2
2022/11/22 07:06:46;;;;;;;7.25;3.55;;;;;;;5.18;100.00;99097.06;5322389;27;20357;-74
2022/11/22 07:09:26;;;;;;;9.55;3.40;;;;;;;5.15;100.00;99091.34;5307599;28;20042;-73
2022/11/22 07:11:59;;;;;;;11.35;3.65;;;;;;;5.16;100.00;99096.53;5282924;28;20024;-74
2022/11/22 07:14:30;;;;;;;7.40;2.97;;;;;;;5.23;100.00;99093.44;5297712;28;20078;-74
2022/11/22 07:17:02;;;;;;;7.13;3.13;;;;;;;5.29;99.52;99091.44;5300572;28;20020;-75
2022/11/22 07:19:33;;;;;;;7.75;3.17;;;;;;;5.29;99.98;99094.19;5299176;28;20024;-74
2022/11/22 07:22:06;;;;;;;15.23;4.40;;;;;;;5.23;99.44;99088.75;5308559;28;20027;-73
2022/11/22 07:24:37;;;;;;;12.30;4.05;;;;;;;5.35;99.53;99082.00;5301335;28;20079;-74
2022/11/22 07:27:08;;;;;;;10.60;3.17;;;;;;;5.30;99.17;99085.66;5300444;28;20052;-74
2022/11/22 07:29:39;;;;;;;8.85;3.15;;;;;;;5.34;99.45;99091.34;5300253;28;20055;-74
2022/11/22 07:32:11;;;;;;;11.88;3.50;;;;;;;5.41;99.29;99091.81;5300022;28;20132;-74
2022/11/22 07:34:42;;;;;;;10.52;4.25;;;;;;;5.43;99.28;99097.81;5299054;28;20030;-73
2022/11/22 07:37:13;;;;;;;8.02;3.10;;;;;;;5.51;99.30;99097.13;5299892;28;20028;-73
2022/11/22 07:39:45;;;;;;;10.35;3.47;;;;;;;5.48;98.71;99100.50;5301324;28;20078;-72
2022/11/22 07:42:16;;;;;;;6.47;2.83;;;;;;;5.51;98.54;99099.88;5298615;28;20020;-73
2022/11/22 07:44:47;;;;;;;8.52;3.30;;;;;;;5.56;98.37;99097.06;5300742;28;20032;-73
2022/11/22 07:47:19;;;;;;;7.68;2.88;;;;;;;5.65;98.94;99095.28;5299894;28;20033;-73
2022/11/22 07:49:52;;;;;;;11.38;3.13;;;;;;;5.71;98.10;99103.44;5298749;28;20108;-73
2022/11/22 07:52:23;;;;;;;7.35;3.35;;;;;;;5.65;97.52;99098.03;5297814;28;20366;-73
2022/11/22 07:54:54;;;;;;;9.13;3.30;;;;;;;5.66;97.86;99091.41;5299991;28;20016;-73
2022/11/22 07:57:27;;;;;;;6.35;3.10;;;;;;;5.66;97.41;99091.41;5290103;28;20529;-73
2022/11/22 07:59:59;;;;;;;10.75;3.03;;;;;;;5.64;97.43;99104.63;5280779;28;20029;-72
2022/11/22 08:02:36;;;;;;;7.90;3.72;;;;;;;5.75;97.92;99104.47;5297871;28;20036;-73
2022/11/22 08:05:08;;;;;;;5.95;2.55;;;;;;;5.99;99.99;99099.69;5295651;28;20071;-72
2022/11/22 08:07:48;;;;;;;11.63;3.58;;;;;;;5.88;98.32;99109.22;5299900;28;20107;-72
2022/11/22 08:10:20;;;;;;;11.18;3.53;;;;;;;5.92;97.86;99112.19;5298962;28;20028;-72
2022/11/22 08:12:51;;;;;;;24.63;11.10;;;;;;;5.91;97.49;99108.63;5300392;28;20164;-70
2022/11/22 08:15:22;;;;;;;9.18;3.13;;;;;;;6.07;99.03;99107.25;5298772;28;20464;-72
2022/11/22 08:17:54;;;;;;;9.02;2.83;;;;;;;6.01;98.52;99104.91;5283248;28;20081;-77
2022/11/22 08:20:25;;;;;;;6.05;2.30;;;;;;;6.03;96.60;99114.50;5285537;28;20032;-78
2022/11/22 08:22:56;;;;;;;8.15;3.35;;;;;;;6.05;96.17;99105.91;5285332;28;20120;-78
2022/11/22 08:25:28;;;;;;;7.35;2.72;;;;;;;5.98;96.35;99114.59;5284681;28;20032;-79
2022/11/22 08:28:01;;;;;;;10.43;2.90;;;;;;;5.97;96.27;99112.94;5285748;28;20162;-78
2022/11/22 08:30:32;;;;;;;6.43;2.88;;;;;;;5.97;96.52;99112.94;5285947;28;20039;-81
2022/11/22 08:33:03;;;;;;;6.93;2.40;;;;;;;6.07;96.79;99111.94;5281565;28;20474;-80
2022/11/22 08:35:35;;;;;;;11.05;3.30;;;;;;;6.01;96.14;99115.91;5273914;28;20033;-79
2022/11/22 08:38:06;;;;;;;10.80;3.17;;;;;;;6.03;96.24;99117.25;5276007;28;20103;-78
2022/11/22 08:40:40;;;;;;;6.95;2.53;;;;;;;6.09;96.57;99126.22;5284396;28;20031;-78
2022/11/22 08:43:12;;;;;;;8.02;4.20;;;;;;;6.07;96.33;99128.47;5285173;28;20024;-77
2022/11/22 08:45:47;;;;;;;7.47;3.00;;;;;;;6.12;96.80;99130.31;5284263;28;20039;-76
2022/11/22 08:48:21;;;;;;;;;;;;;;;6.22;97.24;99128.19;5285672;28;20413;-80
2022/11/22 08:50:56;;;;;;;6.05;2.60;;;;;;;6.09;96.25;99120.72;5284035;28;19913;-79
2022/11/22 08:53:38;;;;;;;11.25;3.42;;;;;;;6.21;96.71;99122.97;5284047;28;20428;-79
2022/11/22 08:56:13;;;;;;;9.35;2.95;;;;;;;6.20;95.88;99124.91;5277786;28;20102;-79
2022/11/22 08:58:44;;;;;;;5.57;2.25;;;;;;;6.21;96.14;99118.31;5280203;28;20031;-79
2022/11/22 09:01:17;;;;;;;8.50;2.67;;;;;;;6.09;96.59;99121.53;5283719;28;20020;-79
2022/11/22 09:03:48;;;;;;;5.57;2.60;;;;;;;6.13;97.08;99131.94;5273487;28;20028;-80
2022/11/22 09:06:20;;;;;;;6.57;2.60;;;;;;;6.18;96.96;99124.41;5286223;28;20109;-82
2022/11/22 09:08:51;;;;;;;8.20;2.83;;;;;;;6.30;97.28;99126.66;5283454;28;20041;-79
2022/11/22 09:11:23;;;;;;;6.03;4.05;;;;;;;6.25;96.93;99133.09;5285016;28;20032;-80
2022/11/22 09:13:57;;;;;;;8.38;2.70;;;;;;;6.32;96.46;99129.94;5284299;28;20032;-80
2022/11/22 09:16:28;;;;;;;8.68;2.88;;;;;;;6.36;96.60;99130.94;5285094;28;20020;-82
2022/11/22 09:19:00;;;;;;;10.00;3.10;;;;;;;6.48;96.77;99133.22;5285067;28;20020;-82
2022/11/22 09:21:31;;;;;;;5.47;3.40;;;;;;;6.43;96.40;99136.88;5272796;28;20089;-77
2022/11/22 09:24:02;;;;;;;6.03;3.13;;;;;;;6.43;96.04;99128.63;5283094;28;20029;-74
2022/11/22 09:26:34;;;;;;;6.65;2.60;;;;;;;6.48;96.19;99128.53;5283991;28;20455;-75
2022/11/22 09:29:05;;;;;;;14.82;3.25;;;;;;;6.42;96.45;99135.28;5282558;28;20032;-77
2022/11/22 09:31:36;;;;;;;6.10;3.00;;;;;;;6.44;96.88;99145.97;5282672;28;20383;-78
2022/11/22 09:34:08;;;;;;;5.88;2.95;;;;;;;6.47;96.87;99134.38;5283956;28;20036;-79
2022/11/22 09:36:39;;;;;;;8.73;2.95;;;;;;;6.51;96.99;99132.63;5282561;28;20032;-79
2022/11/22 09:39:10;;;;;;;5.63;2.50;;;;;;;6.48;96.33;99131.28;5281983;28;20484;-80
2022/11/22 09:42:00;;;;;;;4.10;2.25;;;;;;;6.53;96.26;99136.69;5284871;28;20094;-79
2022/11/22 09:44:53;;;;;;;6.25;3.50;;;;;;;6.67;96.25;99130.38;5284303;28;20043;-81
2022/11/22 09:47:42;;;;;;;4.47;2.38;;;;;;;6.68;95.99;99134.78;5285029;28;20021;-80
2022/11/22 09:50:34;;;;;;;8.20;3.83;;;;;;;6.64;95.46;99136.50;5283296;28;20495;-82
2022/11/22 09:53:15;;;;;;;18.80;15.98;;;;;;;6.68;95.86;99143.03;5284139;28;20068;-80
2022/11/22 09:55:53;;;;;;;8.38;3.60;;;;;;;6.69;96.04;99137.22;5285313;28;20024;-81
2022/11/22 09:58:39;;;;;;;5.47;2.53;;;;;;;6.74;95.63;99131.59;5283620;28;20471;-81
2022/11/22 10:01:17;;;;;;;4.60;1.85;;;;;;;6.69;94.82;99144.66;5284745;28;20044;-80
2022/11/22 10:04:02;;;;;;;7.25;2.88;;;;;;;6.69;95.71;99151.00;5283965;28;20025;-76
2022/11/22 10:06:42;;;;;;;4.90;2.15;;;;;;;6.72;95.26;99155.06;5274709;28;20449;-78
2022/11/22 10:09:35;;;;;;;7.00;2.15;;;;;;;6.66;95.03;99145.28;5273214;28;20487;-76
2022/11/22 10:12:24;;;;;;;4.65;2.40;;;;;;;6.68;95.58;99140.28;5280814;28;20032;-78
2022/11/22 10:15:10;;;;;;;5.63;1.90;;;;;;;6.71;95.87;99145.19;5286566;28;20043;-81
2022/11/22 10:18:14;;;;;;;4.00;1.98;;;;;;;6.75;96.15;99146.22;5290688;28;20105;-81
2022/11/22 10:20:45;;;;;;;4.57;2.03;;;;;;;6.76;95.85;99139.56;5274892;28;20033;-81
2022/11/22 10:23:22;;;;;;;3.50;2.00;;;;;;;6.75;96.04;99138.75;5283364;28;20065;-80
2022/11/22 10:26:03;;;;;;;6.80;2.45;;;;;;;6.71;95.98;99131.41;5283051;28;20056;-82
2022/11/22 10:28:49;;;;;;;11.38;4.03;;;;;;;6.78;96.88;99137.34;5282941;28;20055;-76
2022/11/22 10:31:39;;;;;;;;;;;;;;;6.94;99.38;99135.88;5282020;28;20020;-78
2022/11/22 10:34:20;;;;;;;8.38;3.22;;;;;;;6.94;97.06;99130.38;5283642;28;20355;-74
2022/11/22 10:37:08;;;;;;;5.30;1.85;;;;;;;7.03;96.73;99121.38;5283512;28;20498;-78
2022/11/22 10:39:48;;;;;;;9.82;6.30;;;;;;;7.15;96.46;99124.44;5276847;28;20020;-79
2022/11/22 10:42:32;;;;;;;12.10;3.67;;;;;;;7.10;95.47;99119.84;5283213;28;20021;-77
2022/11/22 10:45:14;;;;;;;6.22;2.45;;;;;;;7.13;95.07;99116.50;5282347;28;20033;-77
2022/11/22 10:47:45;;;;;;;6.10;2.17;;;;;;;7.14;94.88;99118.09;5303010;28;20024;-78
2022/11/22 10:50:28;;;;;;;5.15;2.13;;;;;;;7.17;94.42;99105.66;5304504;28;20031;-80
2022/11/22 10:53:09;;;;;;;3.40;1.83;;;;;;;7.15;94.19;99113.41;5289316;28;20029;-78
2022/11/22 10:55:53;;;;;;;4.88;1.90;;;;;;;7.23;94.47;99115.44;5282747;28;20025;-73
2022/11/22 10:58:52;;;;;;;6.20;2.05;;;;;;;7.30;94.90;99110.31;5274344;28;20036;-78
2022/11/22 11:01:47;;;;;;;3.30;2.17;;;;;;;7.31;94.29;99116.63;5282693;28;20050;-77
2022/11/22 11:04:19;;;;;;;8.25;2.42;;;;;;;7.30;94.19;99115.81;5291962;28;20075;-78
2022/11/22 11:06:56;;;;;;;4.85;1.88;;;;;;;7.28;93.85;99101.53;5282570;28;20033;-76
2022/11/22 11:09:27;;;;;;;3.22;1.88;;;;;;;7.23;93.60;99098.06;5282009;28;20024;-74
2022/11/22 11:12:01;;;;;;;3.78;1.95;;;;;;;7.25;93.21;99095.81;5280048;28;20536;-75
2022/11/22 11:14:38;;;;;;;2.25;1.73;;;;;;;7.24;92.87;99095.00;5282291;28;20024;-78
2022/11/22 11:17:15;;;;;;;6.13;2.60;;;;;;;7.51;94.74;99094.09;5282352;28;20025;-79
2022/11/22 11:19:49;;;;;;;2.88;1.50;;;;;;;7.34;92.93;99092.03;5290209;28;20028;-79
2022/11/22 11:22:23;;;;;;;5.30;2.05;;;;;;;7.42;92.50;99086.91;5304172;28;20028;-78
2022/11/22 11:24:54;;;;;;;2.67;1.58;;;;;;;7.45;92.42;99089.84;5305220;28;20455;-79
2022/11/22 11:27:29;;;;;;;3.97;1.67;;;;;;;7.48;91.83;99074.63;5304138;28;20035;-79
2022/11/22 11:30:03;;;;;;;3.27;1.30;;;;;;;7.50;91.36;99083.41;5289127;28;20077;-75
2022/11/22 11:32:53;;;;;;;3.05;1.50;;;;;;;7.59;91.67;99074.06;5280078;28;20283;-80
2022/11/22 11:35:27;;;;;;;2.80;1.55;;;;;;;7.62;91.34;99067.09;5278958;28;20024;-76
2022/11/22 11:37:59;;;;;;;2.75;1.67;;;;;;;7.66;90.89;99068.09;5272381;28;20120;-74
2022/11/22 11:40:31;;;;;;;19.83;15.98;;;;;;;7.70;90.58;99074.63;5255018;28;20543;-76
2022/11/22 11:43:19;;;;;;;2.72;2.10;;;;;;;7.73;90.46;99079.50;5281660;28;20467;-78
2022/11/22 11:45:53;;;;;;;1.60;1.30;;;;;;;7.72;89.29;99075.13;5282363;28;20082;-78
2022/11/22 11:48:33;;;;;;;3.53;1.40;;;;;;;7.71;89.20;99067.97;5280070;28;20074;-78
2022/11/22 11:51:13;;;;;;;2.33;1.65;;;;;;;7.77;88.41;99074.16;5265761;28;20066;-78
2022/11/22 11:53:56;;;;;;;2.72;1.55;;;;;;;7.73;88.54;99074.00;5287061;28;20021;-78
2022/11/22 11:56:37;;;;;;;2.30;1.60;;;;;;;7.73;88.45;99070.44;5282043;28;20352;-78
2022/11/22 11:59:22;;;;;;;1.50;1.30;;;;;;;7.73;88.61;99079.50;5283635;28;20028;-78
2022/11/22 12:02:15;;;;;;;1.27;1.13;;;;;;;7.73;88.04;99073.19;5285473;28;20017;-78
2022/11/22 12:04:58;;;;;;;1.90;1.40;;;;;;;7.75;88.11;99070.94;5286052;28;20048;-80
2022/11/22 12:07:32;;;;;;;2.13;1.75;;;;;;;7.71;88.22;99075.44;5284313;28;20144;-82
2022/11/22 12:10:28;;;;;;;1.20;0.88;;;;;;;7.77;87.61;99074.16;5284353;28;20031;-82
2022/11/22 12:13:26;;;;;;;1.10;0.82;;;;;;;7.71;87.41;99075.44;5285225;28;20033;-81
2022/11/22 12:16:28;;;;;;;2.92;1.25;;;;;;;7.75;88.09;99065.41;5271503;28;20036;-80
2022/11/22 12:19:27;;;;;;;2.30;1.20;;;;;;;7.79;87.98;99060.88;5286120;28;20506;-80
2022/11/22 12:22:23;;;;;;;1.83;1.20;;;;;;;7.87;87.03;99075.88;5286382;28;20028;-80
2022/11/22 12:25:09;;;;;;;1.98;1.00;;;;;;;7.86;86.84;99071.50;5285675;28;20025;-81
2022/11/22 12:27:40;;;;;;;22.58;20.35;;;;;;;7.81;86.59;99064.94;5285920;28;20024;-80
2022/11/22 12:30:13;;;;;;;3.95;3.30;;;;;;;7.79;85.68;99069.16;5286523;28;20024;-81
2022/11/22 12:32:56;;;;;;;2.30;1.30;;;;;;;7.81;86.83;99076.00;5284461;28;20037;-81
2022/11/22 12:35:33;;;;;;;1.33;1.00;;;;;;;7.80;86.24;99074.38;5282059;28;20027;-81
2022/11/22 12:38:14;;;;;;;1.23;1.00;;;;;;;7.73;86.29;99065.72;5267445;28;20108;-79
2022/11/22 12:40:55;;;;;;;2.15;0.90;;;;;;;7.76;86.27;99067.03;5264710;28;20052;-79
2022/11/22 12:43:34;;;;;;;2.65;1.40;;;;;;;7.77;86.63;99063.97;5270618;28;20384;-80
2022/11/22 12:46:16;;;;;;;1.23;1.13;;;;;;;7.82;86.96;99066.59;5282425;28;20089;-76
2022/11/22 12:48:55;;;;;;;2.80;0.90;;;;;;;7.94;86.76;99070.72;5284418;28;20032;-77
2022/11/22 12:51:34;;;;;;;2.03;1.02;;;;;;;7.90;86.23;99066.94;5281981;28;20036;-78
2022/11/22 12:54:13;;;;;;;0.90;0.88;;;;;;;7.90;86.16;99066.94;5284604;28;20025;-77
2022/11/22 12:56:49;;;;;;;1.73;1.20;;;;;;;7.90;86.32;99058.66;5304486;28;20030;-77
2022/11/22 12:59:49;;;;;;;1.35;1.08;;;;;;;7.93;87.19;99049.78;5305817;28;20020;-77
2022/11/22 13:02:28;;;;;;;2.00;1.35;;;;;;;7.92;86.25;99045.38;5305059;28;20028;-77
2022/11/22 13:05:07;;;;;;;1.95;1.13;;;;;;;7.92;86.22;99056.41;5305829;28;20089;-78
2022/11/22 13:08:02;;;;;;;4.22;2.83;;;;;;;8.00;87.01;99050.13;5294392;28;20025;-79
2022/11/22 13:10:41;;;;;;;3.53;1.05;;;;;;;7.99;86.33;99042.97;5285540;28;20116;-78
2022/11/22 13:13:26;;;;;;;3.60;1.40;;;;;;;7.97;86.30;99039.72;5284878;28;20420;-78
2022/11/22 13:16:01;;;;;;;11.30;9.75;;;;;;;7.96;86.60;99044.44;5285021;28;20074;-76
2022/11/22 13:18:37;;;;;;;1.42;1.30;;;;;;;7.97;86.24;99040.53;5285686;28;20048;-76
2022/11/22 13:21:27;;;;;;;3.25;1.13;;;;;;;8.04;87.35;99042.84;5263974;28;20036;-78
2022/11/22 13:24:17;;;;;;;2.50;1.13;;;;;;;7.98;87.18;99035.84;5263988;28;20033;-77
2022/11/22 13:27:10;;;;;;;3.67;1.55;;;;;;;8.07;87.05;99040.25;5263783;28;20414;-77
2022/11/22 13:29:42;;;;;;;2.60;1.00;;;;;;;7.99;86.88;99034.69;5274472;28;20355;-77
2022/11/22 13:32:19;;;;;;;1.60;1.17;;;;;;;8.01;87.24;99044.28;5284094;28;20024;-78
2022/11/22 13:35:11;;;;;;;2.75;1.30;;;;;;;8.03;87.86;99050.31;5283879;28;20028;-77
2022/11/22 13:37:45;;;;;;;4.35;1.20;;;;;;;7.98;87.61;99052.41;5276297;28;20391;-82
2022/11/22 13:40:26;;;;;;;1.83;1.20;;;;;;;7.99;88.18;99054.03;5284875;28;20032;-76
2022/11/22 13:43:12;;;;;;;1.00;0.90;;;;;;;8.06;87.45;99055.22;5283812;28;20020;-77
2022/11/22 13:45:53;;;;;;;0.98;0.90;;;;;;;8.01;88.45;99052.59;5283834;28;20056;-78
2022/11/22 13:48:40;;;;;;;1.35;1.00;;;;;;;8.11;89.44;99056.22;5286409;28;20026;-75
2022/11/22 13:51:18;;;;;;;1.95;1.20;;;;;;;8.06;89.63;99065.44;5267317;28;20123;-79
2022/11/22 13:53:51;;;;;;;1.15;1.08;;;;;;;8.01;90.99;99062.81;5285696;28;20024;-79
2022/11/22 13:56:25;;;;;;;1.88;1.30;;;;;;;8.00;91.67;99062.00;5287650;28;20044;-80
2022/11/22 13:59:12;;;;;;;7.20;6.25;;;;;;;8.01;92.51;99060.06;5291219;28;20104;-78
2022/11/22 14:01:46;;;;;;;2.38;1.33;;;;;;;8.03;93.64;99061.38;5288606;28;20074;-77
2022/11/22 14:04:23;;;;;;;3.85;1.00;;;;;;;8.04;93.94;99068.50;5278385;28;20045;-77
2022/11/22 14:07:06;;;;;;;1.05;0.95;;;;;;;7.96;93.62;99061.00;5249984;28;20028;-79
2022/11/22 14:09:52;;;;;;;0.88;0.88;;;;;;;7.98;93.60;99053.22;5270372;28;20025;-77
2022/11/22 14:12:42;;;;;;;1.80;1.30;;;;;;;8.02;93.62;99053.38;5277241;28;20104;-76
2022/11/22 14:15:32;;;;;;;1.90;0.98;;;;;;;7.96;93.59;99043.63;5274658;28;20074;-79
2022/11/22 14:18:41;;;;;;;2.97;1.35;;;;;;;8.02;93.62;99045.91;5281999;28;20103;-80
2022/11/22 14:21:39;;;;;;;1.80;1.10;;;;;;;8.05;93.04;99048.06;5261333;28;20026;-75
2022/11/22 14:24:20;;;;;;;2.63;1.10;;;;;;;8.02;92.60;99045.91;5264626;28;20025;-79
2022/11/22 14:27:18;;;;;;;1.95;1.00;;;;;;;8.00;92.39;99036.31;5280788;28;20028;-79
2022/11/22 14:30:13;;;;;;;2.42;1.70;;;;;;;8.07;92.78;99036.69;5280089;28;20017;-80
2022/11/22 14:32:57;;;;;;;2.90;1.63;;;;;;;8.10;91.98;99040.75;5280489;28;20044;-80
2022/11/22 14:35:58;;;;;;;1.67;0.90;;;;;;;8.06;91.72;99032.31;5285336;28;20025;-80
2022/11/22 14:38:40;;;;;;;3.20;0.98;;;;;;;8.09;91.36;99037.19;5277711;28;20041;-78
2022/11/22 14:41:26;;;;;;;1.60;1.10;;;;;;;8.02;91.20;99037.63;5270530;28;20080;-78
2022/11/22 14:44:12;;;;;;;2.00;1.23;;;;;;;8.04;91.70;99037.31;5271256;28;20052;-78
2022/11/22 14:46:45;;;;;;;1.58;1.10;;;;;;;8.01;91.63;99037.97;5282309;28;20033;-78
2022/11/22 14:49:30;;;;;;;15.05;13.38;;;;;;;8.04;92.47;99040.91;5281175;28;20016;-78
2022/11/22 14:52:04;;;;;;;2.58;1.20;;;;;;;8.01;92.96;99047.06;5283079;28;20089;-80
2022/11/22 14:54:48;;;;;;;0.90;0.90;;;;;;;8.00;93.71;99052.88;5281731;28;20028;-79
2022/11/22 14:57:22;;;;;;;3.22;1.80;;;;;;;8.04;94.37;99062.97;5284188;28;20029;-78
2022/11/22 15:00:09;;;;;;;1.63;1.00;;;;;;;8.04;94.82;99056.66;5285880;28;20013;-79
2022/11/22 15:03:18;;;;;;;3.28;0.90;;;;;;;7.97;95.08;99064.56;5282037;28;20041;-77
2022/11/22 15:06:01;;;;;;;2.67;1.10;;;;;;;7.90;96.29;99056.75;5300981;28;20066;-76
2022/11/22 15:08:48;;;;;;;3.08;1.25;;;;;;;7.90;97.09;99065.03;5306495;28;20046;-75
2022/11/22 15:11:48;;;;;;;1.02;0.93;;;;;;;7.94;98.71;99067.97;5305393;28;20048;-75
2022/11/22 15:15:01;;;;;;;1.70;1.05;;;;;;;7.86;99.92;99072.28;5305124;28;20025;-74
2022/11/22 15:17:36;;;;;;;3.40;1.80;;;;;;;7.84;100.00;99078.13;5275203;28;20063;-74
2022/11/22 15:20:30;;;;;;;2.13;1.50;;;;;;;7.93;100.00;99069.91;5266721;28;20040;-72
2022/11/22 15:23:11;;;;;;;1.45;1.10;;;;;;;7.90;100.00;99066.94;5260862;28;20021;-74
2022/11/22 15:25:43;;;;;;;2.17;1.25;;;;;;;7.86;100.00;99071.50;5274703;28;20288;-78
2022/11/22 15:28:21;;;;;;;2.13;1.30;;;;;;;8.23;100.00;99067.47;5292033;28;20028;-79
2022/11/22 15:31:00;;;;;;;2.00;1.40;;;;;;;8.48;100.00;99079.78;5283435;28;20079;-79
2022/11/22 15:33:34;;;;;;;2.20;2.00;;;;;;;8.24;100.00;99078.19;5277773;28;20036;-78
2022/11/22 15:36:31;;;;;;;1.55;1.15;;;;;;;8.17;100.00;99080.59;5248541;28;20357;-78
2022/11/22 15:39:03;;;;;;;2.58;1.20;;;;;;;8.16;100.00;99073.47;5265413;28;20072;-76
2022/11/22 15:41:35;;;;;;;1.20;1.10;;;;;;;8.07;100.00;99070.63;5266404;28;20029;-77
2022/11/22 15:44:11;;;;;;;1.88;1.67;;;;;;;8.13;100.00;99070.50;5266238;28;20040;-77
2022/11/22 15:46:42;;;;;;;;;;;;;;;8.16;100.00;99065.16;5277070;28;20047;-77
2022/11/22 15:49:16;;;;;;;2.20;1.63;;;;;;;8.06;100.00;99070.97;5255179;28;19917;-77
2022/11/22 15:51:57;;;;;;;1.98;1.55;;;;;;;8.08;100.00;99082.50;5258186;28;20490;-77
2022/11/22 15:54:37;;;;;;;4.68;3.08;;;;;;;8.03;100.00;99069.66;5253266;28;20083;-78
2022/11/22 15:57:29;;;;;;;2.75;1.85;;;;;;;8.05;100.00;99080.34;5261850;28;20032;-79
2022/11/22 16:00:07;;;;;;;2.80;2.47;;;;;;;8.10;100.00;99076.66;5268347;28;20029;-72
2022/11/22 16:02:47;;;;;;;3.67;2.58;;;;;;;8.09;100.00;99073.09;5261323;28;20029;-71
2022/11/22 16:05:31;;;;;;;3.35;2.63;;;;;;;8.12;100.00;99088.19;5271550;28;20390;-78
2022/11/22 16:08:13;;;;;;;3.28;2.83;;;;;;;8.14;100.00;99081.22;5285882;28;20422;-76
2022/11/22 16:10:48;;;;;;;3.38;2.70;;;;;;;8.15;100.00;99080.09;5285209;28;20020;-75
2022/11/22 16:13:20;;;;;;;;;;;;;;;8.19;100.00;99081.09;5286124;28;20028;-77
2022/11/22 16:16:26;;;;;;;2.70;2.00;;;;;;;8.14;100.00;99083.19;5285430;28;20035;-75
2022/11/22 16:19:33;;;;;;;3.75;2.90;;;;;;;8.15;100.00;99095.84;5283970;28;20295;-76
2022/11/22 16:22:31;;;;;;;2.63;2.38;;;;;;;8.14;100.00;99086.75;5180169;28;20049;-76
2022/11/22 16:25:29;;;;;;;2.65;2.08;;;;;;;8.16;100.00;99097.50;5285319;28;20475;-76
2022/11/22 16:28:30;;;;;;;2.47;2.10;;;;;;;8.16;100.00;99090.03;5282976;28;20157;-76
2022/11/22 16:31:06;;;;;;;6.05;5.13;;;;;;;8.10;100.00;99088.50;5284864;28;20103;-75
2022/11/22 16:33:37;;;;;;;3.05;2.35;;;;;;;8.11;100.00;99101.19;5285536;28;20020;-75
2022/11/22 16:36:12;;;;;;;3.95;3.30;;;;;;;8.13;100.00;99096.19;5285533;28;20025;-76
